METAR Benelux - 23 Oct 2017 - 0948 UTC - RocketRoute WX - rrwx.com
EBBR 230920Z 25008KT 9999 FEW036 11/08 Q1020 NOSIG EBCI 230920Z 24009KT 9999 FEW011 11/08 Q1020 TEMPO BKN010 EBAW 230920Z 25009KT 9999 FEW020 13/09 Q1019 NOSIG EBLG 230920Z 24012KT CAVOK 11/07 Q1020 NOSIG EBOS 230920Z 21007KT 9999 SCT020 12/09 Q1019 BECMG BKN014 EHEH 230925Z AUTO 25013KT 200V300 9999 SCT015 BKN019 BKN027 13/09 Q1018 WHT 23012KT 9999 SCT016 SCT025 BKN045 EHGG 230925Z AUTO 26014KT 220V290 3400 -RADZ FEW005 BKN007 BKN010 12/11 Q1012 TEMPO 4000 -RADZ BKN010 EHBK 230925Z AUTO 24010KT 180V280 9999 FEW012 SCT016 12/08 Q1019 NOSIG EHRD 230925Z AUTO 27011KT 240V320 9999 FEW025 BKN041 BKN046 13/09 Q1017 NOSIG EHAM 230925Z 27017KT 240V300 9999 FEW024 SCT035 13/08 Q1016 NOSIG ELLX 230920Z 26010KT 9999 BKN010 09/07 Q1021 NOSIG

RocketRoute WX - rrwx.com weather for pilots